sensor_id;sensor_type;location;lat;lon;timestamp;temperature;humidity
23715;DHT22;12036;50.858;4.472;2023-02-28T00:00:11;1.20;99.90
23715;DHT22;12036;50.858;4.472;2023-02-28T00:02:39;1.20;99.90
23715;DHT22;12036;50.858;4.472;2023-02-28T00:05:06;1.10;99.90
23715;DHT22;12036;50.858;4.472;2023-02-28T00:07:32;1.20;99.90
23715;DHT22;12036;50.858;4.472;2023-02-28T00:09:58;1.10;99.90
23715;DHT22;12036;50.858;4.472;2023-02-28T00:12:24;1.00;99.90
23715;DHT22;12036;50.858;4.472;2023-02-28T00:14:50;1.00;99.90
23715;DHT22;12036;50.858;4.472;2023-02-28T00:17:16;1.00;99.90
23715;DHT22;12036;50.858;4.472;2023-02-28T00:19:47;1.00;99.90
23715;DHT22;12036;50.858;4.472;2023-02-28T00:22:15;1.00;99.90
23715;DHT22;12036;50.858;4.472;2023-02-28T00:24:41;1.00;99.90
23715;DHT22;12036;50.858;4.472;2023-02-28T00:27:06;1.00;99.90
23715;DHT22;12036;50.858;4.472;2023-02-28T00:29:32;1.00;99.90
23715;DHT22;12036;50.858;4.472;2023-02-28T00:31:57;1.10;99.90
23715;DHT22;12036;50.858;4.472;2023-02-28T00:34:23;1.00;99.90
23715;DHT22;12036;50.858;4.472;2023-02-28T00:36:49;1.00;99.90
23715;DHT22;12036;50.858;4.472;2023-02-28T00:39:15;1.00;99.90
23715;DHT22;12036;50.858;4.472;2023-02-28T00:41:41;1.00;99.90
23715;DHT22;12036;50.858;4.472;2023-02-28T00:44:06;1.00;99.90
23715;DHT22;12036;50.858;4.472;2023-02-28T00:46:32;1.00;99.90
23715;DHT22;12036;50.858;4.472;2023-02-28T00:48:58;0.90;99.90
23715;DHT22;12036;50.858;4.472;2023-02-28T00:51:24;0.90;99.90
23715;DHT22;12036;50.858;4.472;2023-02-28T00:53:49;0.90;99.90
23715;DHT22;12036;50.858;4.472;2023-02-28T00:56:15;0.90;99.90
23715;DHT22;12036;50.858;4.472;2023-02-28T00:58:40;0.80;99.90
23715;DHT22;12036;50.858;4.472;2023-02-28T01:01:06;0.80;99.90
23715;DHT22;12036;50.858;4.472;2023-02-28T01:03:32;0.70;99.90
23715;DHT22;12036;50.858;4.472;2023-02-28T01:05:57;0.70;99.90
23715;DHT22;12036;50.858;4.472;2023-02-28T01:08:23;0.70;99.90
23715;DHT22;12036;50.858;4.472;2023-02-28T01:10:49;0.70;99.90
23715;DHT22;12036;50.858;4.472;2023-02-28T01:13:15;0.60;99.90
23715;DHT22;12036;50.858;4.472;2023-02-28T01:15:45;0.60;99.90
23715;DHT22;12036;50.858;4.472;2023-02-28T01:18:11;0.60;99.90
23715;DHT22;12036;50.858;4.472;2023-02-28T01:20:37;0.50;99.90
23715;DHT22;12036;50.858;4.472;2023-02-28T01:23:03;0.50;99.90
23715;DHT22;12036;50.858;4.472;2023-02-28T01:25:29;0.40;99.90
23715;DHT22;12036;50.858;4.472;2023-02-28T01:27:54;0.40;99.90
23715;DHT22;12036;50.858;4.472;2023-02-28T01:30:20;0.40;99.90
23715;DHT22;12036;50.858;4.472;2023-02-28T01:32:46;0.50;99.90
23715;DHT22;12036;50.858;4.472;2023-02-28T01:35:11;0.50;99.90
23715;DHT22;12036;50.858;4.472;2023-02-28T01:37:37;0.50;99.90
23715;DHT22;12036;50.858;4.472;2023-02-28T01:40:03;0.50;99.90
23715;DHT22;12036;50.858;4.472;2023-02-28T01:42:29;0.50;99.90
23715;DHT22;12036;50.858;4.472;2023-02-28T01:45:20;0.60;99.90
23715;DHT22;12036;50.858;4.472;2023-02-28T01:47:49;0.60;99.90
23715;DHT22;12036;50.858;4.472;2023-02-28T01:50:22;0.60;99.90
23715;DHT22;12036;50.858;4.472;2023-02-28T01:52:49;0.50;99.90
23715;DHT22;12036;50.858;4.472;2023-02-28T01:55:17;0.50;99.90
23715;DHT22;12036;50.858;4.472;2023-02-28T01:57:48;0.50;99.90
23715;DHT22;12036;50.858;4.472;2023-02-28T02:00:18;0.40;99.90
23715;DHT22;12036;50.858;4.472;2023-02-28T02:02:47;0.50;99.90
23715;DHT22;12036;50.858;4.472;2023-02-28T02:05:20;0.50;99.90
23715;DHT22;12036;50.858;4.472;2023-02-28T02:07:48;0.50;99.90
23715;DHT22;12036;50.858;4.472;2023-02-28T02:15:16;0.50;99.90
23715;DHT22;12036;50.858;4.472;2023-02-28T02:17:51;0.40;99.90
23715;DHT22;12036;50.858;4.472;2023-02-28T02:24:03;0.40;99.90
23715;DHT22;12036;50.858;4.472;2023-02-28T02:37:59;0.20;99.90
23715;DHT22;12036;50.858;4.472;2023-02-28T02:40:32;0.20;99.90
23715;DHT22;12036;50.858;4.472;2023-02-28T02:46:34;0.10;99.90
23715;DHT22;12036;50.858;4.472;2023-02-28T02:49:06;0.10;99.90
23715;DHT22;12036;50.858;4.472;2023-02-28T02:51:34;0.00;99.90
23715;DHT22;12036;50.858;4.472;2023-02-28T02:54:19;0.00;99.90
23715;DHT22;12036;50.858;4.472;2023-02-28T02:56:47;0.00;99.90
23715;DHT22;12036;50.858;4.472;2023-02-28T02:59:17;0.00;99.90
23715;DHT22;12036;50.858;4.472;2023-02-28T03:01:51;0.00;99.90
23715;DHT22;12036;50.858;4.472;2023-02-28T03:04:20;0.00;99.90
23715;DHT22;12036;50.858;4.472;2023-02-28T03:06:46;-0.10;99.90
23715;DHT22;12036;50.858;4.472;2023-02-28T03:09:13;-0.10;99.90
23715;DHT22;12036;50.858;4.472;2023-02-28T03:11:40;-0.10;99.90
23715;DHT22;12036;50.858;4.472;2023-02-28T03:20:02;-0.10;99.90
23715;DHT22;12036;50.858;4.472;2023-02-28T03:22:44;-0.20;99.90
23715;DHT22;12036;50.858;4.472;2023-02-28T03:28:25;-0.10;99.90
23715;DHT22;12036;50.858;4.472;2023-02-28T03:31:12;-0.20;99.90
23715;DHT22;12036;50.858;4.472;2023-02-28T03:33:44;-0.10;99.90
23715;DHT22;12036;50.858;4.472;2023-02-28T03:36:15;-0.20;99.90
23715;DHT22;12036;50.858;4.472;2023-02-28T03:41:38;-0.20;99.90
23715;DHT22;12036;50.858;4.472;2023-02-28T03:44:11;-0.30;99.90
23715;DHT22;12036;50.858;4.472;2023-02-28T03:46:44;-0.20;99.90
23715;DHT22;12036;50.858;4.472;2023-02-28T03:49:23;-0.20;99.90
23715;DHT22;12036;50.858;4.472;2023-02-28T03:51:51;-0.20;99.90
23715;DHT22;12036;50.858;4.472;2023-02-28T03:54:22;-0.20;99.90
23715;DHT22;12036;50.858;4.472;2023-02-28T03:56:53;-0.20;99.90
23715;DHT22;12036;50.858;4.472;2023-02-28T03:59:24;-0.20;99.90
23715;DHT22;12036;50.858;4.472;2023-02-28T04:01:51;-0.20;99.90
23715;DHT22;12036;50.858;4.472;2023-02-28T04:04:17;-0.20;99.90
23715;DHT22;12036;50.858;4.472;2023-02-28T04:06:44;-0.20;99.90
23715;DHT22;12036;50.858;4.472;2023-02-28T04:09:12;-0.20;99.90
23715;DHT22;12036;50.858;4.472;2023-02-28T04:11:39;-0.20;99.90
23715;DHT22;12036;50.858;4.472;2023-02-28T04:14:06;-0.20;99.90
23715;DHT22;12036;50.858;4.472;2023-02-28T04:16:33;-0.20;99.90
23715;DHT22;12036;50.858;4.472;2023-02-28T04:18:59;-0.10;99.90
23715;DHT22;12036;50.858;4.472;2023-02-28T04:21:49;-0.20;99.90
23715;DHT22;12036;50.858;4.472;2023-02-28T04:24:21;-0.10;99.90
23715;DHT22;12036;50.858;4.472;2023-02-28T04:26:49;-0.10;99.90
23715;DHT22;12036;50.858;4.472;2023-02-28T04:29:27;-0.10;99.90
23715;DHT22;12036;50.858;4.472;2023-02-28T04:31:53;-0.10;99.90
23715;DHT22;12036;50.858;4.472;2023-02-28T04:34:20;-0.10;99.90
23715;DHT22;12036;50.858;4.472;2023-02-28T04:36:47;-0.10;99.90
23715;DHT22;12036;50.858;4.472;2023-02-28T04:39:15;-0.10;99.90
23715;DHT22;12036;50.858;4.472;2023-02-28T04:41:41;-0.10;99.90
23715;DHT22;12036;50.858;4.472;2023-02-28T04:44:06;-0.20;99.90
23715;DHT22;12036;50.858;4.472;2023-02-28T04:46:32;-0.20;99.90
23715;DHT22;12036;50.858;4.472;2023-02-28T04:48:58;-0.10;99.90
23715;DHT22;12036;50.858;4.472;2023-02-28T04:51:24;-0.10;99.90
23715;DHT22;12036;50.858;4.472;2023-02-28T04:53:50;-0.10;99.90
23715;DHT22;12036;50.858;4.472;2023-02-28T04:56:17;-0.20;99.90
23715;DHT22;12036;50.858;4.472;2023-02-28T04:58:43;-0.20;99.90
23715;DHT22;12036;50.858;4.472;2023-02-28T05:03:47;-0.20;99.90
23715;DHT22;12036;50.858;4.472;2023-02-28T05:06:13;-0.20;99.90
23715;DHT22;12036;50.858;4.472;2023-02-28T05:08:39;-0.20;99.90
23715;DHT22;12036;50.858;4.472;2023-02-28T05:11:31;-0.10;99.90
23715;DHT22;12036;50.858;4.472;2023-02-28T05:14:01;0.00;99.90
23715;DHT22;12036;50.858;4.472;2023-02-28T05:16:27;0.00;99.90
23715;DHT22;12036;50.858;4.472;2023-02-28T05:18:52;0.10;99.90
23715;DHT22;12036;50.858;4.472;2023-02-28T05:21:34;0.20;99.90
23715;DHT22;12036;50.858;4.472;2023-02-28T05:24:02;0.20;99.90
23715;DHT22;12036;50.858;4.472;2023-02-28T05:26:28;0.30;99.90
23715;DHT22;12036;50.858;4.472;2023-02-28T05:28:54;0.40;99.90
23715;DHT22;12036;50.858;4.472;2023-02-28T05:31:20;0.40;99.90
23715;DHT22;12036;50.858;4.472;2023-02-28T05:33:46;0.50;99.90
23715;DHT22;12036;50.858;4.472;2023-02-28T05:36:12;0.50;99.90
23715;DHT22;12036;50.858;4.472;2023-02-28T05:38:38;0.50;99.90
23715;DHT22;12036;50.858;4.472;2023-02-28T05:41:10;0.60;99.90
23715;DHT22;12036;50.858;4.472;2023-02-28T05:43:37;0.70;99.90
23715;DHT22;12036;50.858;4.472;2023-02-28T05:46:04;0.80;99.90
23715;DHT22;12036;50.858;4.472;2023-02-28T05:48:31;0.80;99.90
23715;DHT22;12036;50.858;4.472;2023-02-28T05:50:57;0.90;99.90
23715;DHT22;12036;50.858;4.472;2023-02-28T05:53:23;0.80;99.90
23715;DHT22;12036;50.858;4.472;2023-02-28T05:55:49;0.80;99.90
23715;DHT22;12036;50.858;4.472;2023-02-28T05:58:14;0.90;99.90
23715;DHT22;12036;50.858;4.472;2023-02-28T06:00:40;0.90;99.90
23715;DHT22;12036;50.858;4.472;2023-02-28T06:03:05;0.90;99.90
23715;DHT22;12036;50.858;4.472;2023-02-28T06:05:31;0.90;99.90
23715;DHT22;12036;50.858;4.472;2023-02-28T06:07:57;1.00;99.90
23715;DHT22;12036;50.858;4.472;2023-02-28T06:10:23;1.10;99.90
23715;DHT22;12036;50.858;4.472;2023-02-28T06:12:48;1.10;99.90
23715;DHT22;12036;50.858;4.472;2023-02-28T06:15:15;1.10;99.90
23715;DHT22;12036;50.858;4.472;2023-02-28T06:17:42;1.10;99.90
23715;DHT22;12036;50.858;4.472;2023-02-28T06:20:09;1.00;99.90
23715;DHT22;12036;50.858;4.472;2023-02-28T06:22:36;1.10;99.90
23715;DHT22;12036;50.858;4.472;2023-02-28T06:25:03;1.20;99.90
23715;DHT22;12036;50.858;4.472;2023-02-28T06:27:30;1.10;99.90
23715;DHT22;12036;50.858;4.472;2023-02-28T06:29:56;1.10;99.90
23715;DHT22;12036;50.858;4.472;2023-02-28T06:32:22;1.20;99.90
23715;DHT22;12036;50.858;4.472;2023-02-28T06:34:48;1.30;99.90
23715;DHT22;12036;50.858;4.472;2023-02-28T06:37:14;1.20;99.90
23715;DHT22;12036;50.858;4.472;2023-02-28T06:39:39;1.30;99.90
23715;DHT22;12036;50.858;4.472;2023-02-28T06:42:05;1.30;99.90
23715;DHT22;12036;50.858;4.472;2023-02-28T06:44:31;1.30;99.90
23715;DHT22;12036;50.858;4.472;2023-02-28T06:47:01;1.30;99.90
23715;DHT22;12036;50.858;4.472;2023-02-28T06:49:29;1.40;99.90
23715;DHT22;12036;50.858;4.472;2023-02-28T06:51:55;1.40;99.90
23715;DHT22;12036;50.858;4.472;2023-02-28T06:54:21;1.40;99.90
23715;DHT22;12036;50.858;4.472;2023-02-28T06:56:46;1.40;99.90
23715;DHT22;12036;50.858;4.472;2023-02-28T06:59:12;1.50;99.90
23715;DHT22;12036;50.858;4.472;2023-02-28T07:01:39;1.50;99.90
23715;DHT22;12036;50.858;4.472;2023-02-28T07:04:05;1.60;99.90
23715;DHT22;12036;50.858;4.472;2023-02-28T07:06:31;1.60;99.90
23715;DHT22;12036;50.858;4.472;2023-02-28T07:08:57;1.70;99.90
23715;DHT22;12036;50.858;4.472;2023-02-28T07:11:25;1.70;99.90
23715;DHT22;12036;50.858;4.472;2023-02-28T07:13:54;1.80;99.90
23715;DHT22;12036;50.858;4.472;2023-02-28T07:16:21;1.90;99.90
23715;DHT22;12036;50.858;4.472;2023-02-28T07:18:46;2.00;99.90
23715;DHT22;12036;50.858;4.472;2023-02-28T07:21:12;2.00;99.90
23715;DHT22;12036;50.858;4.472;2023-02-28T07:23:39;2.10;99.90
23715;DHT22;12036;50.858;4.472;2023-02-28T07:26:11;2.20;99.90
23715;DHT22;12036;50.858;4.472;2023-02-28T07:28:43;2.20;99.90
23715;DHT22;12036;50.858;4.472;2023-02-28T07:31:10;2.20;99.90
23715;DHT22;12036;50.858;4.472;2023-02-28T07:33:36;2.20;99.90
23715;DHT22;12036;50.858;4.472;2023-02-28T07:36:22;2.30;99.90
23715;DHT22;12036;50.858;4.472;2023-02-28T07:38:48;2.40;99.90
23715;DHT22;12036;50.858;4.472;2023-02-28T07:41:21;2.40;99.90
23715;DHT22;12036;50.858;4.472;2023-02-28T07:43:46;2.50;99.90
23715;DHT22;12036;50.858;4.472;2023-02-28T07:46:14;2.50;99.90
23715;DHT22;12036;50.858;4.472;2023-02-28T07:48:41;2.50;99.90
23715;DHT22;12036;50.858;4.472;2023-02-28T07:51:07;2.50;99.90
23715;DHT22;12036;50.858;4.472;2023-02-28T07:53:32;2.50;99.90
23715;DHT22;12036;50.858;4.472;2023-02-28T07:55:59;2.50;99.90
23715;DHT22;12036;50.858;4.472;2023-02-28T07:58:26;2.50;99.90
23715;DHT22;12036;50.858;4.472;2023-02-28T08:00:53;2.60;99.90
23715;DHT22;12036;50.858;4.472;2023-02-28T08:03:20;2.80;99.90
23715;DHT22;12036;50.858;4.472;2023-02-28T08:05:55;2.90;99.90
23715;DHT22;12036;50.858;4.472;2023-02-28T08:08:20;2.90;99.90
23715;DHT22;12036;50.858;4.472;2023-02-28T08:10:47;2.90;99.90
23715;DHT22;12036;50.858;4.472;2023-02-28T08:13:13;3.00;99.90
23715;DHT22;12036;50.858;4.472;2023-02-28T08:15:41;3.10;99.90
23715;DHT22;12036;50.858;4.472;2023-02-28T08:18:07;3.20;99.90
23715;DHT22;12036;50.858;4.472;2023-02-28T08:20:33;3.40;99.90
23715;DHT22;12036;50.858;4.472;2023-02-28T08:22:59;3.50;99.90
23715;DHT22;12036;50.858;4.472;2023-02-28T08:25:24;3.50;99.90
23715;DHT22;12036;50.858;4.472;2023-02-28T08:27:51;3.60;99.90
23715;DHT22;12036;50.858;4.472;2023-02-28T08:30:17;3.80;99.90
23715;DHT22;12036;50.858;4.472;2023-02-28T08:32:43;3.90;99.90
23715;DHT22;12036;50.858;4.472;2023-02-28T08:35:09;4.00;99.80
23715;DHT22;12036;50.858;4.472;2023-02-28T08:37:35;4.10;98.40
23715;DHT22;12036;50.858;4.472;2023-02-28T08:40:01;4.10;98.80
23715;DHT22;12036;50.858;4.472;2023-02-28T08:42:26;4.20;98.50
23715;DHT22;12036;50.858;4.472;2023-02-28T08:44:52;4.30;98.10
23715;DHT22;12036;50.858;4.472;2023-02-28T08:47:18;4.30;98.00
23715;DHT22;12036;50.858;4.472;2023-02-28T08:49:44;4.30;97.60
23715;DHT22;12036;50.858;4.472;2023-02-28T08:52:09;4.30;97.70
23715;DHT22;12036;50.858;4.472;2023-02-28T08:54:35;4.30;96.80
23715;DHT22;12036;50.858;4.472;2023-02-28T08:57:02;4.20;97.00
23715;DHT22;12036;50.858;4.472;2023-02-28T08:59:28;4.20;96.70
23715;DHT22;12036;50.858;4.472;2023-02-28T09:01:54;4.10;96.90
23715;DHT22;12036;50.858;4.472;2023-02-28T09:04:19;4.10;96.70
23715;DHT22;12036;50.858;4.472;2023-02-28T09:06:45;4.00;96.60
23715;DHT22;12036;50.858;4.472;2023-02-28T09:09:11;4.00;96.60
23715;DHT22;12036;50.858;4.472;2023-02-28T09:11:37;4.00;96.80
23715;DHT22;12036;50.858;4.472;2023-02-28T09:14:03;4.10;95.50
23715;DHT22;12036;50.858;4.472;2023-02-28T09:16:30;4.20;95.00
23715;DHT22;12036;50.858;4.472;2023-02-28T09:18:56;4.20;93.90
23715;DHT22;12036;50.858;4.472;2023-02-28T09:21:22;4.20;93.80
23715;DHT22;12036;50.858;4.472;2023-02-28T09:23:49;4.10;93.60
23715;DHT22;12036;50.858;4.472;2023-02-28T09:26:24;4.20;93.20
23715;DHT22;12036;50.858;4.472;2023-02-28T09:28:51;4.10;92.70
23715;DHT22;12036;50.858;4.472;2023-02-28T09:31:20;4.10;92.60
23715;DHT22;12036;50.858;4.472;2023-02-28T09:33:50;4.20;92.10
23715;DHT22;12036;50.858;4.472;2023-02-28T09:36:17;4.30;92.00
23715;DHT22;12036;50.858;4.472;2023-02-28T09:38:43;4.30;92.40
23715;DHT22;12036;50.858;4.472;2023-02-28T09:41:17;4.40;91.50
23715;DHT22;12036;50.858;4.472;2023-02-28T09:43:47;4.40;90.30
23715;DHT22;12036;50.858;4.472;2023-02-28T09:49:02;4.70;88.40
23715;DHT22;12036;50.858;4.472;2023-02-28T09:54:21;5.00;84.40
23715;DHT22;12036;50.858;4.472;2023-02-28T09:57:04;4.90;84.80
23715;DHT22;12036;50.858;4.472;2023-02-28T10:02:06;4.90;83.40
23715;DHT22;12036;50.858;4.472;2023-02-28T10:04:55;4.90;81.60
23715;DHT22;12036;50.858;4.472;2023-02-28T10:10:57;4.90;79.40
23715;DHT22;12036;50.858;4.472;2023-02-28T10:13:37;4.90;78.40
23715;DHT22;12036;50.858;4.472;2023-02-28T10:16:22;5.00;75.10
23715;DHT22;12036;50.858;4.472;2023-02-28T10:19:04;5.10;76.10
23715;DHT22;12036;50.858;4.472;2023-02-28T10:21:47;5.10;73.90
23715;DHT22;12036;50.858;4.472;2023-02-28T10:27:00;5.10;70.20
23715;DHT22;12036;50.858;4.472;2023-02-28T10:29:27;5.10;65.40
23715;DHT22;12036;50.858;4.472;2023-02-28T10:31:55;5.00;66.60
23715;DHT22;12036;50.858;4.472;2023-02-28T10:34:21;5.10;65.90
23715;DHT22;12036;50.858;4.472;2023-02-28T10:36:49;4.90;66.50
23715;DHT22;12036;50.858;4.472;2023-02-28T10:39:42;5.00;66.40
23715;DHT22;12036;50.858;4.472;2023-02-28T10:44:47;5.40;65.50
23715;DHT22;12036;50.858;4.472;2023-02-28T10:47:17;5.50;63.50
23715;DHT22;12036;50.858;4.472;2023-02-28T10:49:48;5.50;61.30
23715;DHT22;12036;50.858;4.472;2023-02-28T10:52:36;5.50;61.80
23715;DHT22;12036;50.858;4.472;2023-02-28T10:55:35;5.30;61.50
23715;DHT22;12036;50.858;4.472;2023-02-28T10:58:01;5.30;61.80
23715;DHT22;12036;50.858;4.472;2023-02-28T11:00:33;5.30;61.60
23715;DHT22;12036;50.858;4.472;2023-02-28T11:02:59;5.20;61.90
23715;DHT22;12036;50.858;4.472;2023-02-28T11:07:54;5.10;63.00
23715;DHT22;12036;50.858;4.472;2023-02-28T11:10:22;5.10;60.90
23715;DHT22;12036;50.858;4.472;2023-02-28T11:12:49;5.20;61.90
23715;DHT22;12036;50.858;4.472;2023-02-28T11:15:24;5.30;62.40
23715;DHT22;12036;50.858;4.472;2023-02-28T11:20:34;5.60;62.20
23715;DHT22;12036;50.858;4.472;2023-02-28T11:23:02;5.50;62.30
23715;DHT22;12036;50.858;4.472;2023-02-28T11:25:34;5.50;61.10
23715;DHT22;12036;50.858;4.472;2023-02-28T11:28:02;5.50;61.00
23715;DHT22;12036;50.858;4.472;2023-02-28T11:30:35;5.50;61.60
23715;DHT22;12036;50.858;4.472;2023-02-28T11:33:40;5.70;60.20
23715;DHT22;12036;50.858;4.472;2023-02-28T11:36:27;5.90;60.40
23715;DHT22;12036;50.858;4.472;2023-02-28T11:38:55;6.30;59.60
23715;DHT22;12036;50.858;4.472;2023-02-28T11:52:54;8.10;56.20
23715;DHT22;12036;50.858;4.472;2023-02-28T11:55:34;7.90;55.90
23715;DHT22;12036;50.858;4.472;2023-02-28T12:04:25;7.30;54.30
23715;DHT22;12036;50.858;4.472;2023-02-28T12:07:20;7.20;54.80
23715;DHT22;12036;50.858;4.472;2023-02-28T12:12:51;6.80;54.40
23715;DHT22;12036;50.858;4.472;2023-02-28T12:15:25;6.70;54.90
23715;DHT22;12036;50.858;4.472;2023-02-28T12:20:52;6.80;54.60
23715;DHT22;12036;50.858;4.472;2023-02-28T12:23:43;6.70;54.50
23715;DHT22;12036;50.858;4.472;2023-02-28T12:31:54;6.80;54.40
23715;DHT22;12036;50.858;4.472;2023-02-28T12:34:27;6.80;55.10
23715;DHT22;12036;50.858;4.472;2023-02-28T12:36:56;7.00;54.20
23715;DHT22;12036;50.858;4.472;2023-02-28T12:39:26;7.00;54.30
23715;DHT22;12036;50.858;4.472;2023-02-28T12:42:03;7.00;53.70
23715;DHT22;12036;50.858;4.472;2023-02-28T12:47:15;7.00;54.00
23715;DHT22;12036;50.858;4.472;2023-02-28T12:49:58;7.00;53.60
23715;DHT22;12036;50.858;4.472;2023-02-28T13:11:49;7.10;53.60
23715;DHT22;12036;50.858;4.472;2023-02-28T13:14:37;7.20;53.40
23715;DHT22;12036;50.858;4.472;2023-02-28T13:19:35;7.10;53.30
23715;DHT22;12036;50.858;4.472;2023-02-28T13:22:02;7.20;52.50
23715;DHT22;12036;50.858;4.472;2023-02-28T13:29:35;7.30;52.00
23715;DHT22;12036;50.858;4.472;2023-02-28T13:47:42;7.10;51.50
23715;DHT22;12036;50.858;4.472;2023-02-28T14:06:38;7.00;52.00
23715;DHT22;12036;50.858;4.472;2023-02-28T14:11:39;7.00;52.30
23715;DHT22;12036;50.858;4.472;2023-02-28T14:14:07;7.00;53.00
23715;DHT22;12036;50.858;4.472;2023-02-28T14:19:10;7.30;51.70
23715;DHT22;12036;50.858;4.472;2023-02-28T14:21:38;7.20;51.70
23715;DHT22;12036;50.858;4.472;2023-02-28T14:32:41;7.20;51.70
23715;DHT22;12036;50.858;4.472;2023-02-28T14:37:51;7.00;52.20
23715;DHT22;12036;50.858;4.472;2023-02-28T14:40:25;6.90;52.20
23715;DHT22;12036;50.858;4.472;2023-02-28T14:42:57;7.00;52.50
23715;DHT22;12036;50.858;4.472;2023-02-28T14:45:23;7.20;52.90
23715;DHT22;12036;50.858;4.472;2023-02-28T14:47:50;7.30;52.20
23715;DHT22;12036;50.858;4.472;2023-02-28T14:50:34;7.30;52.20
23715;DHT22;12036;50.858;4.472;2023-02-28T14:53:01;7.30;51.90
23715;DHT22;12036;50.858;4.472;2023-02-28T14:55:34;7.20;52.40
23715;DHT22;12036;50.858;4.472;2023-02-28T14:58:02;7.10;52.90
23715;DHT22;12036;50.858;4.472;2023-02-28T15:00:35;7.10;53.30
23715;DHT22;12036;50.858;4.472;2023-02-28T15:03:19;7.20;52.90
23715;DHT22;12036;50.858;4.472;2023-02-28T15:05:54;7.40;52.60
23715;DHT22;12036;50.858;4.472;2023-02-28T15:08:20;7.40;52.70
23715;DHT22;12036;50.858;4.472;2023-02-28T15:10:57;7.30;52.80
23715;DHT22;12036;50.858;4.472;2023-02-28T15:13:39;7.20;52.60
23715;DHT22;12036;50.858;4.472;2023-02-28T15:16:12;7.30;53.00
23715;DHT22;12036;50.858;4.472;2023-02-28T15:18:43;7.20;53.00
23715;DHT22;12036;50.858;4.472;2023-02-28T15:21:11;7.10;53.30
23715;DHT22;12036;50.858;4.472;2023-02-28T15:23:40;7.00;53.50
23715;DHT22;12036;50.858;4.472;2023-02-28T15:26:09;6.90;54.30
23715;DHT22;12036;50.858;4.472;2023-02-28T15:28:35;7.00;54.00
23715;DHT22;12036;50.858;4.472;2023-02-28T15:31:03;7.00;53.80
23715;DHT22;12036;50.858;4.472;2023-02-28T15:33:56;7.00;53.70
23715;DHT22;12036;50.858;4.472;2023-02-28T15:36:26;6.90;53.90
23715;DHT22;12036;50.858;4.472;2023-02-28T15:38:53;6.80;53.70
23715;DHT22;12036;50.858;4.472;2023-02-28T15:41:36;6.80;53.90
23715;DHT22;12036;50.858;4.472;2023-02-28T15:44:27;6.80;54.30
23715;DHT22;12036;50.858;4.472;2023-02-28T15:49:24;6.80;54.40
23715;DHT22;12036;50.858;4.472;2023-02-28T15:51:51;6.80;54.10
23715;DHT22;12036;50.858;4.472;2023-02-28T15:54:35;6.80;54.10
23715;DHT22;12036;50.858;4.472;2023-02-28T15:57:05;6.60;54.80
23715;DHT22;12036;50.858;4.472;2023-02-28T15:59:35;6.50;54.80
23715;DHT22;12036;50.858;4.472;2023-02-28T16:04:36;6.40;54.80
23715;DHT22;12036;50.858;4.472;2023-02-28T16:07:04;6.30;55.30
23715;DHT22;12036;50.858;4.472;2023-02-28T16:09:30;6.40;54.80
23715;DHT22;12036;50.858;4.472;2023-02-28T16:12:00;6.50;54.90
23715;DHT22;12036;50.858;4.472;2023-02-28T16:14:30;6.40;55.00
23715;DHT22;12036;50.858;4.472;2023-02-28T16:17:07;6.30;55.10
23715;DHT22;12036;50.858;4.472;2023-02-28T16:19:38;6.30;55.40
23715;DHT22;12036;50.858;4.472;2023-02-28T16:22:04;6.20;55.70
23715;DHT22;12036;50.858;4.472;2023-02-28T16:24:29;6.20;56.00
23715;DHT22;12036;50.858;4.472;2023-02-28T16:26:56;6.00;56.60
23715;DHT22;12036;50.858;4.472;2023-02-28T16:29:32;5.90;56.60
23715;DHT22;12036;50.858;4.472;2023-02-28T16:31:59;5.90;56.90
23715;DHT22;12036;50.858;4.472;2023-02-28T16:34:25;5.90;56.90
23715;DHT22;12036;50.858;4.472;2023-02-28T16:36:51;6.00;56.60
23715;DHT22;12036;50.858;4.472;2023-02-28T16:39:17;6.00;56.00
23715;DHT22;12036;50.858;4.472;2023-02-28T16:41:44;5.90;56.10
23715;DHT22;12036;50.858;4.472;2023-02-28T16:44:34;5.80;56.70
23715;DHT22;12036;50.858;4.472;2023-02-28T16:47:01;5.90;56.70
23715;DHT22;12036;50.858;4.472;2023-02-28T16:49:27;6.00;56.80
23715;DHT22;12036;50.858;4.472;2023-02-28T16:51:53;5.70;57.20
23715;DHT22;12036;50.858;4.472;2023-02-28T16:54:19;5.60;57.40
23715;DHT22;12036;50.858;4.472;2023-02-28T16:56:46;5.50;57.70
23715;DHT22;12036;50.858;4.472;2023-02-28T16:59:13;5.50;58.00
23715;DHT22;12036;50.858;4.472;2023-02-28T17:01:40;5.50;58.10
23715;DHT22;12036;50.858;4.472;2023-02-28T17:04:05;5.40;58.10
23715;DHT22;12036;50.858;4.472;2023-02-28T17:06:31;5.40;58.20
23715;DHT22;12036;50.858;4.472;2023-02-28T17:08:58;5.40;58.20
23715;DHT22;12036;50.858;4.472;2023-02-28T17:11:25;5.40;58.40
23715;DHT22;12036;50.858;4.472;2023-02-28T17:13:51;5.20;58.60
23715;DHT22;12036;50.858;4.472;2023-02-28T17:16:29;5.10;58.90
23715;DHT22;12036;50.858;4.472;2023-02-28T17:18:59;5.00;59.20
23715;DHT22;12036;50.858;4.472;2023-02-28T17:21:26;4.80;59.50
23715;DHT22;12036;50.858;4.472;2023-02-28T17:23:51;4.80;59.80
23715;DHT22;12036;50.858;4.472;2023-02-28T17:26:19;4.70;59.90
23715;DHT22;12036;50.858;4.472;2023-02-28T17:28:46;4.60;60.70
23715;DHT22;12036;50.858;4.472;2023-02-28T17:31:12;4.50;61.00
23715;DHT22;12036;50.858;4.472;2023-02-28T17:33:38;4.50;61.20
23715;DHT22;12036;50.858;4.472;2023-02-28T17:36:04;4.30;61.60
23715;DHT22;12036;50.858;4.472;2023-02-28T17:38:30;4.30;62.10
23715;DHT22;12036;50.858;4.472;2023-02-28T17:40:56;4.20;62.60
23715;DHT22;12036;50.858;4.472;2023-02-28T17:43:26;4.30;62.80
23715;DHT22;12036;50.858;4.472;2023-02-28T17:45:53;4.30;63.00
23715;DHT22;12036;50.858;4.472;2023-02-28T17:48:19;4.20;63.60
23715;DHT22;12036;50.858;4.472;2023-02-28T17:50:45;4.10;64.10
23715;DHT22;12036;50.858;4.472;2023-02-28T17:53:10;4.00;65.00
23715;DHT22;12036;50.858;4.472;2023-02-28T17:55:36;3.90;65.50
23715;DHT22;12036;50.858;4.472;2023-02-28T17:58:02;3.90;65.90
23715;DHT22;12036;50.858;4.472;2023-02-28T18:00:28;3.80;66.60
23715;DHT22;12036;50.858;4.472;2023-02-28T18:02:54;3.80;66.60
23715;DHT22;12036;50.858;4.472;2023-02-28T18:05:20;3.80;67.10
23715;DHT22;12036;50.858;4.472;2023-02-28T18:07:45;3.80;66.70
23715;DHT22;12036;50.858;4.472;2023-02-28T18:10:17;3.80;66.80
23715;DHT22;12036;50.858;4.472;2023-02-28T18:12:50;3.80;67.00
23715;DHT22;12036;50.858;4.472;2023-02-28T18:15:18;3.80;66.90
23715;DHT22;12036;50.858;4.472;2023-02-28T18:17:48;3.80;67.50
23715;DHT22;12036;50.858;4.472;2023-02-28T18:20:14;3.70;67.70
23715;DHT22;12036;50.858;4.472;2023-02-28T18:22:41;3.70;68.20
23715;DHT22;12036;50.858;4.472;2023-02-28T18:25:08;3.70;68.70
23715;DHT22;12036;50.858;4.472;2023-02-28T18:27:37;3.60;69.10
23715;DHT22;12036;50.858;4.472;2023-02-28T18:30:04;3.50;69.60
23715;DHT22;12036;50.858;4.472;2023-02-28T18:32:30;3.50;70.20
23715;DHT22;12036;50.858;4.472;2023-02-28T18:34:56;3.50;70.70
23715;DHT22;12036;50.858;4.472;2023-02-28T18:37:21;3.40;71.20
23715;DHT22;12036;50.858;4.472;2023-02-28T18:39:47;3.40;71.80
23715;DHT22;12036;50.858;4.472;2023-02-28T18:42:13;3.30;72.10
23715;DHT22;12036;50.858;4.472;2023-02-28T18:44:39;3.30;72.60
23715;DHT22;12036;50.858;4.472;2023-02-28T18:47:05;3.30;73.50
23715;DHT22;12036;50.858;4.472;2023-02-28T18:49:31;3.20;73.60